Tiempo atmosférico en la estación meteorológica de Tornavacas, Cáceres (991 m.)



Fecha
DESCASC
Temp. máxima en grados centígrados (hora)
DESCASC
Temp. mínima en grados centígrados (hora)
DESCASC
Temp. media en grados centígrados
DESCASC
Racha de viento máxima en m/sg (hora)
DESCASC
Velocidad máxima media en intervalos de 10 minutos(hora)
DESCASC
Precipitaciones diarias en mm
DESCASC
Precipitaciones de 00:00 a 06:00 en mm
DESCASC
Precipitaciones de 06:00 a 12:00 en mm
DESCASC
Precipitaciones de 12:00 a 18:00 en mm
DESCASC
Precipitaciones de 18:00 a 24:00 en mm
DESCASC
17-10-2019 12.9 (23:40) 9.7 (06:50) 11.3 6.39 (14:50) 4.17 (16:20) 23 0 7.8 2 13.2
16-10-2019 14.9 (16:50) 7 (05:30) 10.9 9.17 (17:20) 6.11 (16:00) 0 0 0 0 0
15-10-2019 14.4 (16:10) 5.2 (03:40) 9.8 11.11 (08:40) 7.5 (09:40) 0 0 0 0 0
14-10-2019 19 (00:00) 6.7 (23:00) 12.8 20 (08:50) 11.11 (07:10) 19.2 0 6.6 12.2 0.4
13-10-2019 20.3 (17:20) 12.3 (00:00) 16.3 13.61 (19:20) 8.33 (16:40) 0 0 0 0 0
12-10-2019 25 (15:20) 16.3 (00:00) 20.6 16.67 (18:00) 7.5 (17:50) 0 0 0 0 0
11-10-2019 25 (15:40) 16.7 (00:00) 20.9 11.11 (16:20) 6.67 (15:00) 0 0 0 0 0
10-10-2019 25.9 (16:30) 13.8 (00:00) 19.8 11.94 (04:00) 8.89 (03:50) 0 0 0 0 0
09-10-2019 26.8 (16:10) 14.1 (00:00) 20.4 15.28 (08:20) 10.28 (10:00) 0 0 0 0 0
08-10-2019 28.2 (16:50) 17.3 (00:00) 22.8 12.5 (02:20) 6.67 (00:20) 0 0 0 0 0
07-10-2019 27.9 (16:50) 14.5 (00:00) 21.2 13.89 (05:00) 9.44 (08:50) 0 0 0 0 0
06-10-2019 25.4 (17:20) 13.3 (00:00) 19.3 13.89 (08:20) 10 (06:10) 0 0 0 0 0
05-10-2019 24.6 (16:40) 13.3 (00:00) 19 11.11 (23:20) 6.67 (06:00) 0 0 0 0 0
04-10-2019 25 (16:20) 13.9 (00:00) 19.4 13.33 (03:20) 9.17 (03:30) 0 0 0 0 0
03-10-2019 25.1 (16:20) 12 (00:00) 18.6 11.67 (23:59) 7.5 (23:59) 0 0 0 0 0
02-10-2019 22.9 (15:00) 8.7 (00:00) 15.8 17.5 (09:00) 11.94 (05:50) 0 0 0 0 0
01-10-2019 21.2 (16:00) 11.8 (00:00) 16.5 14.72 (10:10) 10.83 (10:10) 0 0 0 0 0
30-09-2019 26.3 (16:20) 15.1 (00:00) 20.7 10.83 (03:00) 8.33 (00:40) 0 0 0 0 0
29-09-2019 26.6 (17:20) 16.3 (00:00) 21.4 8.89 (23:40) 5.83 (23:40) 0 0 0 0 0
28-09-2019 26.5 (17:30) 14.4 (00:00) 20.4 11.39 (03:30) 8.33 (04:30) 0 0 0 0 0
27-09-2019 26.5 (17:20) 14 (00:00) 20.3 11.67 (09:40) 9.44 (09:50) 0 0 0 0 0
26-09-2019 24.9 (17:30) 14 (00:00) 19.4 11.94 (00:20) 7.5 (00:20) 0 0 0 0 0
25-09-2019 22.5 (16:40) 10.8 (00:00) 16.7 14.72 (11:20) 9.44 (11:10) 0 0 0 0 0
24-09-2019 21.5 (16:00) 12.5 (00:00) 17 8.33 (16:30) 6.11 (16:40) 0 0 0 0 0
23-09-2019 21.3 (17:20) 10.8 (00:00) 16 9.17 (05:20) 6.94 (05:40) 0 0 0 0 0
22-09-2019 18.7 (16:20) 10.7 (00:00) 14.7 12.22 (01:00) 8.06 (01:10) 14.8 14.8 0 0 0
21-09-2019 15.4 (23:40) 13 (00:00) 14.2 11.94 (12:20) 6.67 (16:10) 14.2 0 4.4 5.8 4
20-09-2019 23.1 (14:20) 14.9 (00:00) 19 8.89 (14:30) 5.83 (12:30) 4.8 0 0 2.2 2.6
19-09-2019 26.6 (17:50) 16.4 (00:00) 21.5 8.61 (09:20) 6.39 (08:00) 0 0 0 0 0

Gráficas

Temp. máximas Temp. mínimas Temp. medias Precipitaciones Rachas de viento máximas Velocidades máximas media en intervalos de 10 minutos

Datos horarios

Fecha y hora oficial Temperatura (ºC) Velocidad del viento (km/h) Dirección del viento Racha (km/h) Dirección de racha Precipitación (mm) Presión (hPa) Tendencia (hPa) Humedad (%)
2019-10-18 23:00:00 10.9 14 Sudoeste 24 Sudoeste 0 -- -- 89
2019-10-18 22:00:00 11.7 15 Sudoeste 24 Sudoeste 0 -- -- 85
2019-10-18 21:00:00 11.8 8 Sur 22 Sudoeste 0 -- -- 81
2019-10-18 20:00:00 12.6 14 Sudoeste 30 Sudoeste 0 -- -- 78
2019-10-18 19:00:00 14.8 18 Sudoeste 32 Sudoeste 0 -- -- 77
2019-10-18 18:00:00 16.3 21 Sudoeste 44 Oeste 0 -- -- 73
2019-10-18 17:00:00 17.2 19 Oeste 32 Oeste 0 -- -- 73
2019-10-18 16:00:00 16 19 Sudoeste 28 Sudoeste 0 -- -- 82
2019-10-18 15:00:00 14.9 16 Sudoeste 34 Sudoeste 0 -- -- 90
2019-10-18 14:00:00 15 20 Sudoeste 34 Sudoeste 0 -- -- 95
2019-10-18 13:00:00 14.5 14 Sudoeste 21 Sudoeste 0 -- -- 99
2019-10-18 12:00:00 13.7 15 Sudoeste 21 Sudoeste 0 -- -- 100
2019-10-18 11:00:00 13.5 11 Sudoeste 26 Sudoeste 0 -- -- 100
2019-10-18 10:00:00 13.4 12 Sudoeste 20 Sudoeste 0 -- -- 100
2019-10-18 09:00:00 13 8 Sudoeste 19 Sudoeste 0 -- -- 100
2019-10-18 08:00:00 13.2 12 Sudoeste 23 Sudoeste 0 -- -- 99
2019-10-18 07:00:00 13.4 14 Sudoeste 34 Sudoeste 0.8 -- -- 99
2019-10-18 06:00:00 13.6 19 Sudoeste 29 Sudoeste 2.4 -- -- 99
2019-10-18 05:00:00 13.5 19 Sudoeste 29 Sudoeste 5.2 -- -- 99
2019-10-18 04:00:00 13.5 21 Sudoeste 34 Sudoeste 4 -- -- 99
2019-10-18 03:00:00 13.4 15 Sudoeste 33 Sudoeste 2 -- -- 99
2019-10-18 02:00:00 13.3 14 Sudoeste 22 Sudoeste 4.2 -- -- 99
2019-10-18 01:00:00 13 11 Sudoeste 19 Oeste 3.2 -- -- 99
2019-10-18 00:00:00 12.9 9 Sudoeste 19 Sudoeste 3.8 -- -- 99
2019-10-17 23:00:00 12.6 7 Sudoeste 17 Sudoeste 2.6 -- -- 99
2019-10-17 22:00:00 12.4 11 Sudoeste 19 Sudoeste 2.4 -- -- 99
2019-10-17 21:00:00 12.3 11 Sudoeste 16 Sudoeste 2.8 -- -- 99
2019-10-17 20:00:00 12.2 9 Sudoeste 16 Sudoeste 0.8 -- -- 98
2019-10-17 19:00:00 12.1 12 Sudoeste 19 Sudoeste 0.8 -- -- 98
2019-10-17 18:00:00 12.1 13 Sudoeste 19 Sudoeste 0.4 -- -- 98
2019-10-17 17:00:00 12.2 13 Sudoeste 21 Sudoeste 0.4 -- -- 98
2019-10-17 16:00:00 12.1 13 Sudoeste 21 Sudoeste 0.4 -- -- 97
2019-10-17 15:00:00 12.2 14 Sudoeste 23 Oeste 0.2 -- -- 97
2019-10-17 14:00:00 12.1 9 Sudoeste 15 Oeste 0.2 -- -- 97
2019-10-17 13:00:00 11.7 2 Oeste 8 Sudoeste 0.4 -- -- 96
2019-10-17 12:00:00 11 3 Oeste 4 Oeste 0.6 -- -- 96
2019-10-17 11:00:00 10.4 0 Calma 3 Sur 1.2 -- -- 96
2019-10-17 10:00:00 10.1 0 Calma 3 Oeste 1.6 -- -- 96
2019-10-17 09:00:00 9.9 2 Oeste 4 Oeste 1.4 -- -- 95
2019-10-17 08:00:00 9.9 0 Calma 7 Sur 1.2 -- -- 94
2019-10-17 07:00:00 9.7 4 Sudoeste 15 Sudoeste 1.8 -- -- 92
2019-10-17 06:00:00 10.9 13 Sudoeste 19 Sudoeste 0 -- -- 81
2019-10-17 05:00:00 11.1 5 Sur 9 Sur 0 -- -- 78
2019-10-17 04:00:00 10.9 7 Sur 9 Sur 0 -- -- 79
2019-10-17 03:00:00 10.4 4 Oeste 12 Sur 0 -- -- 80
2019-10-17 02:00:00 11.3 5 Sur 13 Sur 0 -- -- 76
2019-10-17 01:00:00 11.7 5 Sur 10 Sur 0 -- -- 73
2019-10-17 00:00:00 11.8 5 Sur 12 Sudoeste 0 -- -- 72
2019-10-16 23:00:00 11.4 6 Sudoeste 13 Sur 0 -- -- 73
2019-10-16 22:00:00 10.7 5 Sur 13 Sudeste 0 -- -- 73
2019-10-16 21:00:00 10.8 8 Sudeste 13 Sudeste 0 -- -- 73
2019-10-16 20:00:00 11.7 8 Sur 26 Oeste 0 -- -- 71
2019-10-16 19:00:00 13.5 21 Sudoeste 29 Sudoeste 0 -- -- 63
2019-10-16 18:00:00 13.6 18 Sudoeste 33 Sudoeste 0 -- -- 62
2019-10-16 17:00:00 14.8 20 Sudoeste 27 Sudoeste 0 -- -- 57
2019-10-16 16:00:00 14.2 22 Sudoeste 31 Sudoeste 0 -- -- 58
2019-10-16 15:00:00 14.4 19 Sudoeste 28 Sudoeste 0 -- -- 57
2019-10-16 14:00:00 13.8 19 Sudoeste 29 Sudoeste 0 -- -- 56
2019-10-16 13:00:00 12.4 17 Sudoeste 31 Sudoeste 0 -- -- 56
2019-10-16 12:00:00 12.1 15 Sudoeste 21 Sudoeste 0 -- -- 67
2019-10-16 11:00:00 10.6 7 Sudoeste 11 Sudoeste 0 -- -- 74
2019-10-16 10:00:00 8.6 4 Sudoeste 9 Sudoeste 0 -- -- 81
2019-10-16 09:00:00 7.6 4 Sur 10 Sur 0 -- -- 85
2019-10-16 08:00:00 7.2 3 Sudoeste 10 Sur 0 -- -- 85
2019-10-16 07:00:00 7.1 4 Sur 8 Sur 0 -- -- 86
2019-10-16 06:00:00 7.2 5 Sur 8 Sur 0 -- -- 85
2019-10-16 05:00:00 7.4 3 Sudoeste 8 Sur 0 -- -- 83
2019-10-16 04:00:00 7.9 4 Sur 8 Sur 0 -- -- 81
2019-10-16 03:00:00 8 4 Sudoeste 8 Sudoeste 0 -- -- 80
2019-10-16 02:00:00 8.1 4 Sur 12 Sudeste 0 -- -- 79
2019-10-16 01:00:00 8.2 7 Sudeste 11 Sudeste 0 -- -- 77
2019-10-16 00:00:00 7.8 7 Este 10 Este 0 -- -- 79
2019-10-15 23:00:00 8.1 6 Este 14 Sudeste 0 -- -- 79
2019-10-15 22:00:00 7.5 8 Este 13 Nordeste 0 -- -- 79
2019-10-15 21:00:00 7.8 7 Este 10 Este 0 -- -- 81
2019-10-15 20:00:00 9.2 4 Este 13 Sudoeste 0 -- -- 75
2019-10-15 19:00:00 11.5 10 Sudoeste 27 Sudoeste 0 -- -- 65
2019-10-15 18:00:00 12.9 17 Sudoeste 27 Sudoeste 0 -- -- 58
2019-10-15 17:00:00 14.4 17 Sudoeste 28 Sudoeste 0 -- -- 52
2019-10-15 16:00:00 14.3 17 Sudoeste 27 Oeste 0 -- -- 53
2019-10-15 15:00:00 14 14 Sudoeste 23 Sudoeste 0 -- -- 52
2019-10-15 14:00:00 12.8 12 Sudoeste 18 Sudoeste 0 -- -- 52
2019-10-15 13:00:00 12.4 7 Nordeste 23 Nordeste 0 -- -- 56
2019-10-15 12:00:00 10.4 14 Este 29 Este 0 -- -- 61
2019-10-15 11:00:00 8.5 19 Este 33 Este 0 -- -- 65
2019-10-15 10:00:00 6.5 23 Este 39 Este 0 -- -- 71
2019-10-15 09:00:00 5.8 22 Este 40 Este 0 -- -- 73
2019-10-15 08:00:00 5.9 21 Este 39 Este 0 -- -- 72
2019-10-15 07:00:00 5.8 19 Este 34 Nordeste 0 -- -- 73
2019-10-15 06:00:00 5.8 23 Este 35 Este 0 -- -- 74
2019-10-15 05:00:00 6 14 Este 26 Este 0 -- -- 72
2019-10-15 04:00:00 5.3 12 Nordeste 19 Nordeste 0 -- -- 75
2019-10-15 03:00:00 6.5 9 Nordeste 24 Este 0 -- -- 69
2019-10-15 02:00:00 6.4 16 Nordeste 30 Nordeste 0 -- -- 67
2019-10-15 01:00:00 6.2 10 Nordeste 22 Nordeste 0 -- -- 69
2019-10-15 00:00:00 6.7 9 Nordeste 26 Nordeste 0 -- -- 71
2019-10-14 23:00:00 6.7 7 Nordeste 20 Sudeste 0 -- -- 72
2019-10-14 22:00:00 7.1 9 Sudeste 20 Este 0 -- -- 74
2019-10-14 21:00:00 8 10 Sur 45 Sudoeste 0 -- -- 76
2019-10-14 20:00:00 7.6 5 Nordeste 26 Sudoeste 0 -- -- 88
2019-10-14 19:00:00 8.9 11 Sudeste 39 Sudoeste 0.4 -- -- 79
2019-10-14 18:00:00 9.6 9 Sudoeste 31 Sudoeste 0.2 -- -- 96
2019-10-14 17:00:00 8.5 17 Sur 46 Sudoeste 2.6 -- -- 96
2019-10-14 16:00:00 8.9 20 Sudoeste 48 Sudoeste 8.4 -- -- 96
2019-10-14 15:00:00 9.6 15 Sudoeste 31 Sudoeste 1 -- -- 93
2019-10-14 14:00:00 10.2 21 Sudoeste 38 Sudoeste 0 -- -- 85
2019-10-14 13:00:00 11.7 21 Sudoeste 45 Sudoeste 0 -- -- 78
2019-10-14 12:00:00 11 25 Sudoeste 35 Sudoeste 0 -- -- 84
2019-10-14 11:00:00 9.6 21 Sudoeste 35 Sudoeste 0 -- -- 96
2019-10-14 10:00:00 9.8 20 Sudoeste 37 Sudoeste 0 -- -- 96
2019-10-14 09:00:00 10 26 Sudoeste 72 Sudoeste 6.2 -- -- 94
2019-10-14 08:00:00 12.1 20 Sudoeste 58 Sudoeste 0.4 -- -- 90
2019-10-14 07:00:00 13.7 38 Sudoeste 60 Sudoeste 0 -- -- 76
2019-10-14 06:00:00 13 22 Sudoeste 43 Oeste 0 -- -- 82
2019-10-14 05:00:00 16.6 21 Sudoeste 45 Oeste 0 -- -- 57
2019-10-14 04:00:00 17.9 22 Sudoeste 43 Oeste 0 -- -- 51
2019-10-14 03:00:00 18.2 22 Sudoeste 43 Oeste 0 -- -- 51
2019-10-14 02:00:00 18.4 18 Sudoeste 49 Oeste 0 -- -- 50
2019-10-14 01:00:00 18.8 20 Sudoeste 44 Sudoeste 0 -- -- 51
2019-10-14 00:00:00 19 22 Sudoeste 38 Oeste 0 -- -- 50
2019-10-13 23:00:00 18.6 17 Sudoeste 33 Sudoeste 0 -- -- 51
2019-10-13 22:00:00 18.4 17 Sudoeste 40 Oeste 0 -- -- 52
2019-10-13 21:00:00 17.9 15 Sudoeste 37 Sudoeste 0 -- -- 52
2019-10-13 20:00:00 17.9 20 Sudoeste 49 Oeste 0 -- -- 52
2019-10-13 19:00:00 19 23 Oeste 47 Oeste 0 -- -- 49
2019-10-13 18:00:00 19.9 23 Oeste 41 Oeste 0 -- -- 46
2019-10-13 17:00:00 19.9 24 Oeste 45 Oeste 0 -- -- 48
2019-10-13 16:00:00 19.4 24 Oeste 48 Oeste 0 -- -- 50
2019-10-13 15:00:00 18.6 30 Oeste 44 Oeste 0 -- -- 53
2019-10-13 14:00:00 17.9 28 Oeste 47 Oeste 0 -- -- 57
2019-10-13 13:00:00 17 25 Sudoeste 37 Sudoeste 0 -- -- 60
2019-10-13 12:00:00 15.6 22 Sudoeste 35 Sudoeste 0 -- -- 66
2019-10-13 11:00:00 13.4 20 Sudoeste 28 Sudoeste 0 -- -- 79
2019-10-13 10:00:00 12.5 16 Sudoeste 27 Sudoeste 0 -- -- 86
2019-10-13 09:00:00 12.3 15 Sudoeste 26 Sudoeste 0 -- -- 89
2019-10-13 08:00:00 12.5 15 Sudoeste 22 Sudoeste 0 -- -- 90
2019-10-13 07:00:00 12.9 14 Sudoeste 27 Sudoeste 0 -- -- 89
2019-10-13 06:00:00 13.5 17 Sudoeste 34 Sudoeste 0 -- -- 88
2019-10-13 05:00:00 12.7 17 Sudoeste 31 Sudoeste 0 -- -- 91
2019-10-13 04:00:00 13 17 Sudoeste 30 Sudoeste 0 -- -- 91
2019-10-13 03:00:00 14.1 16 Sudoeste 29 Sudoeste 0 -- -- 91
2019-10-13 02:00:00 15 22 Sudoeste 35 Sudoeste 0 -- -- 90
2019-10-13 01:00:00 16.4 19 Sudoeste 37 Sudoeste 0 -- -- 79
2019-10-13 00:00:00 18.4 24 Sudoeste 34 Sudoeste 0 -- -- 61
2019-10-12 23:00:00 19.5 24 Sudoeste 43 Sudoeste 0 -- -- 52
2019-10-12 22:00:00 20.5 21 Sudoeste 44 Sudoeste 0 -- -- 45
2019-10-12 21:00:00 21.9 22 Sudoeste 44 Sudoeste 0 -- -- 39
2019-10-12 20:00:00 21.9 21 Sudoeste 40 Sudoeste 0 -- -- 39
2019-10-12 19:00:00 22.6 24 Sudoeste 43 Sudoeste 0 -- -- 38
2019-10-12 18:00:00 23.7 25 Sudoeste 60 Sudoeste 0 -- -- 38
2019-10-12 17:00:00 24 24 Sudoeste 54 Sudoeste 0 -- -- 37
2019-10-12 16:00:00 24.1 21 Sudoeste 41 Oeste 0 -- -- 38
2019-10-12 15:00:00 24.4 19 Sudoeste 49 Oeste 0 -- -- 39
2019-10-12 14:00:00 22.3 17 Oeste 42 Oeste 0 -- -- 43
2019-10-12 13:00:00 22.5 17 Sudoeste 37 Sudoeste 0 -- -- 41
2019-10-12 12:00:00 22.5 19 Sudoeste 31 Sudoeste 0 -- -- 46
2019-10-12 11:00:00 21.2 9 Sudoeste 21 Sur 0 -- -- 47
2019-10-12 10:00:00 18.5 8 Sudoeste 18 Sudoeste 0 -- -- 55
2019-10-12 09:00:00 17.7 3 Este 12 Sudeste 0 -- -- 55
2019-10-12 08:00:00 18.2 8 Sudeste 16 Sur 0 -- -- 53
2019-10-12 07:00:00 17.1 3 Este 12 Este 0 -- -- 62
2019-10-12 06:00:00 17.9 3 Sudoeste 15 Sur 0 -- -- 61
2019-10-12 05:00:00 16.6 3 Sudoeste 7 Este 0 -- -- 66
2019-10-12 04:00:00 16.3 5 Este 6 Nordeste 0 -- -- 68
2019-10-12 03:00:00 17.8 5 Sur 18 Sudoeste 0 -- -- 62
2019-10-12 02:00:00 18.3 4 Sudoeste 10 Sur 0 -- -- 58
2019-10-12 01:00:00 19.5 7 Sur 21 Sur 0 -- -- 54
2019-10-12 00:00:00 20.3 8 Sur 29 Sur 0 -- -- 52
2019-10-11 23:00:00 20.7 10 Sudoeste 20 Sur 0 -- -- 52
2019-10-11 22:00:00 20.6 6 Sur 18 Sur 0 -- -- 51
2019-10-11 21:00:00 20.7 10 Sur 21 Sudoeste 0 -- -- 51
2019-10-11 20:00:00 21.3 12 Sudoeste 27 Oeste 0 -- -- 50
2019-10-11 19:00:00 22.1 18 Oeste 30 Oeste 0 -- -- 52
2019-10-11 18:00:00 22.9 18 Oeste 36 Oeste 0 -- -- 51
2019-10-11 17:00:00 23.6 18 Sudoeste 40 Sudoeste 0 -- -- 49
2019-10-11 16:00:00 24.8 18 Sudoeste 37 Sudoeste 0 -- -- 46
2019-10-11 15:00:00 24.4 24 Oeste 40 Sudoeste 0 -- -- 45
2019-10-11 14:00:00 24.2 20 Sudoeste 33 Sudoeste 0 -- -- 49
2019-10-11 13:00:00 23.5 12 Sudoeste 19 Sudoeste 0 -- -- 52
2019-10-11 12:00:00 22.1 8 Sudoeste 11 Sudoeste 0 -- -- 55
2019-10-11 11:00:00 20.9 2 Sudoeste 9 Sudeste 0 -- -- 53
2019-10-11 10:00:00 17.5 7 Este 15 Sudeste 0 -- -- 65
2019-10-11 09:00:00 17.6 8 Este 12 Nordeste 0 -- -- 63
2019-10-11 08:00:00 16.8 5 Este 12 Este 0 -- -- 62
2019-10-11 07:00:00 16.9 4 Este 15 Este 0 -- -- 59
2019-10-11 06:00:00 16.8 6 Sudeste 16 Sudeste 0 -- -- 58
2019-10-11 05:00:00 17.3 10 Sudeste 15 Sudeste 0 -- -- 53
2019-10-11 04:00:00 17.3 9 Este 13 Este 0 -- -- 51
2019-10-11 03:00:00 17.3 9 Sudeste 15 Este 0 -- -- 50
2019-10-11 02:00:00 17.6 12 Sudeste 16 Sudeste 0 -- -- 49
2019-10-11 01:00:00 17.6 11 Sudeste 17 Sudeste 0 -- -- 48
2019-10-11 00:00:00 17.6 10 Este 15 Sudeste 0 -- -- 48
2019-10-10 23:00:00 17.6 10 Sudeste 14 Sudeste 0 -- -- 48
2019-10-10 22:00:00 17.4 6 Este 13 Sudeste 0 -- -- 51
2019-10-10 21:00:00 17.7 8 Este 12 Este 0 -- -- 51
2019-10-10 20:00:00 19.4 6 Este 10 Este 0 -- -- 47
2019-10-10 19:00:00 24 6 Sudoeste 17 Sudoeste 0 -- -- 36
2019-10-10 18:00:00 25.3 14 Sudoeste 22 Sudoeste 0 -- -- 31
2019-10-10 17:00:00 25.7 15 Sudoeste 27 Sudoeste 0 -- -- 28
2019-10-10 16:00:00 25.8 19 Oeste 30 Oeste 0 -- -- 27
2019-10-10 15:00:00 25.2 21 Oeste 30 Sudoeste 0 -- -- 26
2019-10-10 14:00:00 23.3 13 Sudoeste 21 Sudoeste 0 -- -- 38
2019-10-10 13:00:00 23.3 7 Sudoeste 12 Sudoeste 0 -- -- 36
2019-10-10 12:00:00 22.4 5 Sudoeste 24 Nordeste 0 -- -- 38
2019-10-10 11:00:00 18.5 17 Nordeste 28 Nordeste 0 -- -- 43
2019-10-10 10:00:00 15.2 19 Nordeste 32 Nordeste 0 -- -- 46
2019-10-10 09:00:00 13.9 23 Nordeste 37 Nordeste 0 -- -- 50
2019-10-10 08:00:00 14 24 Nordeste 33 Nordeste 0 -- -- 52
2019-10-10 07:00:00 14.3 23 Nordeste 33 Nordeste 0 -- -- 50
2019-10-10 06:00:00 16.6 25 Nordeste 35 Nordeste 0 -- -- 47
2019-10-10 05:00:00 16.9 27 Nordeste 43 Nordeste 0 -- -- 45
2019-10-10 04:00:00 16 31 Nordeste 43 Nordeste 0 -- -- 43
2019-10-10 03:00:00 15.5 26 Nordeste 43 Nordeste 0 -- -- 42
2019-10-10 02:00:00 16.1 20 Nordeste 40 Este 0 -- -- 41
2019-10-10 01:00:00 16.6 20 Nordeste 36 Este 0 -- -- 41
2019-10-10 00:00:00 17.1 22 Este 41 Este 0 -- -- 39
2019-10-09 23:00:00 17.2 21 Este 40 Nordeste 0 -- -- 41
2019-10-09 22:00:00 16.4 22 Nordeste 34 Nordeste 0 -- -- 49
2019-10-09 21:00:00 17.6 19 Nordeste 34 Este 0 -- -- 48
2019-10-09 20:00:00 19.2 18 Nordeste 28 Este 0 -- -- 46
2019-10-09 19:00:00 22.9 17 Este 30 Nordeste 0 -- -- 39
2019-10-09 18:00:00 24.2 19 Nordeste 27 Nordeste 0 -- -- 35
2019-10-09 17:00:00 25.3 16 Nordeste 26 Nordeste 0 -- -- 34
2019-10-09 16:00:00 26.6 6 Sudoeste 16 Sudoeste 0 -- -- 32
2019-10-09 15:00:00 25.4 9 Sudoeste 16 Sudoeste 0 -- -- 40
2019-10-09 14:00:00 24.7 8 Sudoeste 28 Nordeste 0 -- -- 42
2019-10-09 13:00:00 20.2 24 Nordeste 44 Nordeste 0 -- -- 62
2019-10-09 12:00:00 18 29 Nordeste 46 Nordeste 0 -- -- 68
2019-10-09 11:00:00 16.5 30 Nordeste 52 Nordeste 0 -- -- 77
2019-10-09 10:00:00 15.2 37 Nordeste 51 Este 0 -- -- 80
2019-10-09 09:00:00 14.3 29 Nordeste 55 Este 0 -- -- 83
2019-10-09 08:00:00 14.3 27 Nordeste 50 Nordeste 0 -- -- 82
2019-10-09 07:00:00 16.8 32 Nordeste 44 Nordeste 0 -- -- 73
2019-10-09 06:00:00 16.3 29 Nordeste 41 Nordeste 0 -- -- 75
2019-10-09 05:00:00 16.5 29 Nordeste 48 Nordeste 0 -- -- 73
2019-10-09 04:00:00 16.7 26 Nordeste 51 Nordeste 0 -- -- 67
2019-10-09 03:00:00 17.9 31 Nordeste 44 Nordeste 0 -- -- 57
2019-10-09 02:00:00 19.8 15 Nordeste 33 Este 0 -- -- 52
2019-10-09 01:00:00 20.6 21 Este 34 Este 0 -- -- 51
2019-10-09 00:00:00 19.4 23 Nordeste 32 Nordeste 0 -- -- 52
2019-10-08 23:00:00 20.1 20 Este 36 Nordeste 0 -- -- 49
2019-10-08 22:00:00 19.5 7 Este 14 Sudeste 0 -- -- 47
2019-10-08 21:00:00 19.9 8 Este 12 Nordeste 0 -- -- 47
2019-10-08 20:00:00 21.7 6 Este 14 Sudoeste 0 -- -- 45
2019-10-08 19:00:00 26.5 10 Sudoeste 21 Sudoeste 0 -- -- 35
2019-10-08 18:00:00 27.8 15 Sudoeste 22 Oeste 0 -- -- 33
2019-10-08 17:00:00 28.2 13 Sudoeste 23 Oeste 0 -- -- 32
2019-10-08 16:00:00 27.8 13 Sudoeste 23 Sudoeste 0 -- -- 31
2019-10-08 15:00:00 26.7 15 Sudoeste 26 Sudoeste 0 -- -- 36
2019-10-08 14:00:00 26.3 13 Sudoeste 21 Sudoeste 0 -- -- 35
2019-10-08 13:00:00 25.4 8 Sudoeste 12 Sudoeste 0 -- -- 39
2019-10-08 12:00:00 24.2 6 Sudoeste 9 Sudoeste 0 -- -- 39
2019-10-08 11:00:00 22.2 4 Sur 14 Sudeste 0 -- -- 43
2019-10-08 10:00:00 17.6 10 Sudeste 13 Sudeste 0 -- -- 55
2019-10-08 09:00:00 17.5 8 Sudeste 13 Nordeste 0 -- -- 52
2019-10-08 08:00:00 17.7 10 Este 16 Nordeste 0 -- -- 50
2019-10-08 07:00:00 18 9 Este 21 Nordeste 0 -- -- 49
2019-10-08 06:00:00 18.5 10 Nordeste 24 Nordeste 0 -- -- 47
2019-10-08 05:00:00 18.9 14 Nordeste 26 Nordeste 0 -- -- 44
2019-10-08 04:00:00 18.9 24 Nordeste 31 Nordeste 0 -- -- 44
2019-10-08 03:00:00 18.9 24 Nordeste 45 Nordeste 0 -- -- 43
2019-10-08 02:00:00 21.3 17 Este 33 Nordeste 0 -- -- 36
2019-10-08 01:00:00 21 22 Este 40 Nordeste 0 -- -- 36
2019-10-08 00:00:00 20.2 19 Nordeste 32 Este 0 -- -- 38
2019-10-07 23:00:00 21.5 22 Este 33 Este 0 -- -- 35
2019-10-07 22:00:00 20.4 18 Nordeste 25 Nordeste 0 -- -- 38
2019-10-07 21:00:00 20.6 17 Nordeste 27 Nordeste 0 -- -- 39
2019-10-07 20:00:00 22.4 12 Este 22 Nordeste 0 -- -- 38
2019-10-07 19:00:00 25.8 14 Nordeste 28 Nordeste 0 -- -- 33
2019-10-07 18:00:00 27.2 18 Nordeste 28 Nordeste 0 -- -- 30
2019-10-07 17:00:00 27.7 15 Nordeste 30 Nordeste 0 -- -- 29
2019-10-07 16:00:00 27.4 17 Este 29 Este 0 -- -- 30
2019-10-07 15:00:00 26.9 14 Nordeste 25 Nordeste 0 -- -- 34
2019-10-07 14:00:00 26.3 11 Nordeste 27 Nordeste 0 -- -- 36
2019-10-07 13:00:00 25.2 17 Nordeste 30 Nordeste 0 -- -- 35
2019-10-07 12:00:00 23.1 20 Nordeste 32 Nordeste 0 -- -- 32
2019-10-07 11:00:00 21.3 19 Este 44 Este 0 -- -- 31
2019-10-07 10:00:00 18.6 26 Este 39 Este 0 -- -- 33
2019-10-07 09:00:00 18.1 32 Nordeste 43 Nordeste 0 -- -- 38
2019-10-07 08:00:00 17.9 31 Este 45 Nordeste 0 -- -- 39
2019-10-07 07:00:00 17.8 24 Este 45 Este 0 -- -- 40
2019-10-07 06:00:00 17.5 24 Este 45 Este 0 -- -- 41
2019-10-07 05:00:00 16.6 30 Este 50 Este 0 -- -- 45
2019-10-07 04:00:00 18 30 Este 45 Este 0 -- -- 40
2019-10-07 03:00:00 16 21 Nordeste 42 Nordeste 0 -- -- 47
2019-10-07 02:00:00 15 31 Nordeste 46 Nordeste 0 -- -- 51
2019-10-07 01:00:00 16.2 23 Nordeste 35 Nordeste 0 -- -- 50
2019-10-07 00:00:00 18.4 13 Nordeste 30 Nordeste 0 -- -- 44
2019-10-06 23:00:00 19.7 17 Este 33 Este 0 -- -- 40
2019-10-06 22:00:00 20.7 22 Este 39 Este 0 -- -- 36
2019-10-06 21:00:00 20.9 11 Este 25 Nordeste 0 -- -- 34
2019-10-06 20:00:00 21.2 15 Este 23 Nordeste 0 -- -- 34
2019-10-06 19:00:00 24.1 8 Nordeste 21 Nordeste 0 -- -- 35
2019-10-06 18:00:00 25.2 9 Nordeste 20 Nordeste 0 -- -- 34
2019-10-06 17:00:00 25 13 Nordeste 27 Nordeste 0 -- -- 34
2019-10-06 16:00:00 24.6 14 Nordeste 26 Nordeste 0 -- -- 35
2019-10-06 15:00:00 23.8 13 Nordeste 22 Nordeste 0 -- -- 37
2019-10-06 14:00:00 23.1 13 Oeste 20 Sudoeste 0 -- -- 34
2019-10-06 13:00:00 22.8 4 Sudoeste 13 Sudoeste 0 -- -- 33
2019-10-06 12:00:00 22 3 Sur 28 Este 0 -- -- 31
2019-10-06 11:00:00 19.8 23 Este 40 Este 0 -- -- 27
2019-10-06 10:00:00 16.1 24 Nordeste 48 Este 0 -- -- 42
2019-10-06 09:00:00 14 27 Nordeste 50 Nordeste 0 -- -- 51
2019-10-06 08:00:00 13.3 28 Nordeste 38 Nordeste 0 -- -- 53
2019-10-06 07:00:00 14.3 22 Nordeste 50 Nordeste 0 -- -- 51
2019-10-06 06:00:00 14.9 28 Nordeste 48 Este 0 -- -- 47
2019-10-06 05:00:00 16.2 34 Este 47 Este 0 -- -- 44
2019-10-06 04:00:00 16 19 Nordeste 44 Nordeste 0 -- -- 42
2019-10-06 03:00:00 18 23 Este 42 Este 0 -- -- 38
2019-10-06 02:00:00 16.7 30 Este 50 Este 0 -- -- 46
2019-10-06 01:00:00 15.6 26 Nordeste 40 Nordeste 0 -- -- 50
2019-10-06 00:00:00 18.3 17 Este 40 Este 0 -- -- 41
2019-10-05 23:00:00 17.7 18 Este 32 Este 0 -- -- 43
2019-10-05 22:00:00 17.9 17 Este 30 Este 0 -- -- 51
2019-10-05 21:00:00 17.3 8 Este 11 Este 0 -- -- 61
2019-10-05 20:00:00 19.4 6 Este 10 Nordeste 0 -- -- 59
2019-10-05 19:00:00 23.9 8 Sudoeste 17 Sudoeste 0 -- -- 44
2019-10-05 18:00:00 24.1 13 Sudoeste 19 Sudoeste 0 -- -- 46
2019-10-05 17:00:00 24.4 12 Sudoeste 21 Sudoeste 0 -- -- 47
2019-10-05 16:00:00 24.3 13 Sudoeste 24 Sudoeste 0 -- -- 47
2019-10-05 15:00:00 23.4 14 Sudoeste 21 Sudoeste 0 -- -- 50
2019-10-05 14:00:00 22.6 8 Sudoeste 17 Sudoeste 0 -- -- 48
2019-10-05 13:00:00 21.2 13 Sudoeste 17 Sudoeste 0 -- -- 52
2019-10-05 12:00:00 20.8 6 Sudoeste 10 Oeste 0 -- -- 49
2019-10-05 11:00:00 19.3 5 Sudeste 13 Sudeste 0 -- -- 50
2019-10-05 10:00:00 14.8 8 Sudeste 16 Este 0 -- -- 59
2019-10-05 09:00:00 14.2 10 Este 26 Nordeste 0 -- -- 60
2019-10-05 08:00:00 13.9 20 Nordeste 31 Nordeste 0 -- -- 62
2019-10-05 07:00:00 13.6 21 Nordeste 35 Nordeste 0 -- -- 65
2019-10-05 06:00:00 13.4 24 Nordeste 33 Nordeste 0 -- -- 66
2019-10-05 05:00:00 15.4 16 Nordeste 30 Nordeste 0 -- -- 62
2019-10-05 04:00:00 14.7 20 Nordeste 36 Nordeste 0 -- -- 64
2019-10-05 03:00:00 14.9 21 Nordeste 34 Nordeste 0 -- -- 64
2019-10-05 02:00:00 17.3 15 Este 36 Este 0 -- -- 57
2019-10-05 01:00:00 16.7 21 Este 34 Este 0 -- -- 58
2019-10-05 00:00:00 17 19 Este 32 Este 0 -- -- 57
2019-10-04 23:00:00 15.7 9 Sudeste 13 Sudeste 0 -- -- 60
2019-10-04 22:00:00 16 8 Este 10 Sudeste 0 -- -- 59
2019-10-04 21:00:00 16.8 6 Este 14 Nordeste 0 -- -- 59
2019-10-04 20:00:00 20 5 Nordeste 20 Sudoeste 0 -- -- 52
2019-10-04 19:00:00 23.4 15 Sudoeste 21 Sudoeste 0 -- -- 43
2019-10-04 18:00:00 24.6 13 Sudoeste 21 Sudoeste 0 -- -- 40
2019-10-04 17:00:00 24.4 15 Sudoeste 22 Sudoeste 0 -- -- 37
2019-10-04 16:00:00 24.7 14 Sudoeste 28 Oeste 0 -- -- 39
2019-10-04 15:00:00 23.3 15 Sudoeste 24 Oeste 0 -- -- 40
2019-10-04 14:00:00 22.1 13 Sudoeste 19 Sudoeste 0 -- -- 44
2019-10-04 13:00:00 21 9 Sudoeste 14 Oeste 0 -- -- 44
2019-10-04 12:00:00 19.6 6 Sudoeste 13 Sudoeste 0 -- -- 45
2019-10-04 11:00:00 20 6 Sur 14 Este 0 -- -- 42
2019-10-04 10:00:00 14.8 14 Este 24 Nordeste 0 -- -- 57
2019-10-04 09:00:00 13.9 6 Este 12 Sudeste 0 -- -- 57
2019-10-04 08:00:00 15.2 8 Este 33 Nordeste 0 -- -- 52
2019-10-04 07:00:00 14.9 23 Nordeste 32 Nordeste 0 -- -- 69
2019-10-04 06:00:00 15.3 21 Nordeste 41 Nordeste 0 -- -- 69
2019-10-04 05:00:00 14.3 29 Nordeste 44 Nordeste 0 -- -- 68
2019-10-04 04:00:00 16 28 Nordeste 48 Nordeste 0 -- -- 70
2019-10-04 03:00:00 15.1 27 Este 44 Este 0 -- -- 65
2019-10-04 02:00:00 14.5 28 Nordeste 45 Nordeste 0 -- -- 58
2019-10-04 01:00:00 15.6 26 Nordeste 45 Este 0 -- -- 49
2019-10-04 00:00:00 16.2 27 Nordeste 42 Nordeste 0 -- -- 45
2019-10-03 23:00:00 18.7 18 Este 30 Este 0 -- -- 39
2019-10-03 22:00:00 19.9 14 Este 24 Este 0 -- -- 38
2019-10-03 21:00:00 19.7 14 Este 25 Nordeste 0 -- -- 38
2019-10-03 20:00:00 20.3 13 Nordeste 26 Norte 0 -- -- 36
2019-10-03 19:00:00 23.4 14 Nordeste 41 Nordeste 0 -- -- 33
2019-10-03 18:00:00 24.1 15 Nordeste 33 Nordeste 0 -- -- 29
2019-10-03 17:00:00 24.4 18 Nordeste 29 Nordeste 0 -- -- 29
2019-10-03 16:00:00 24.8 10 Sudoeste 21 Sudoeste 0 -- -- 35
2019-10-03 15:00:00 23.3 5 Oeste 15 Sudoeste 0 -- -- 36
2019-10-03 14:00:00 22 8 Sudoeste 27 Sudoeste 0 -- -- 38
2019-10-03 13:00:00 20.6 17 Este 40 Este 0 -- -- 38
2019-10-03 12:00:00 18 24 Este 40 Este 0 -- -- 40
2019-10-03 11:00:00 17 19 Este 35 Este 0 -- -- 41
2019-10-03 10:00:00 15.3 16 Este 28 Este 0 -- -- 42
2019-10-03 09:00:00 13.5 10 Nordeste 30 Este 0 -- -- 49
2019-10-03 08:00:00 13.9 14 Este 27 Nordeste 0 -- -- 46
2019-10-03 07:00:00 12 8 Este 14 Sudeste 0 -- -- 55
2019-10-03 06:00:00 12.2 8 Este 19 Nordeste 0 -- -- 55
2019-10-03 05:00:00 13.3 17 Nordeste 26 Nordeste 0 -- -- 53
2019-10-03 04:00:00 13.1 20 Nordeste 29 Nordeste 0 -- -- 54
2019-10-03 03:00:00 12.8 23 Nordeste 33 Nordeste 0 -- -- 55
2019-10-03 02:00:00 13.7 20 Nordeste 34 Este 0 -- -- 53
2019-10-03 01:00:00 14.6 25 Este 37 Este 0 -- -- 50
2019-10-03 00:00:00 14.2 14 Nordeste 35 Nordeste 0 -- -- 52
2019-10-02 23:00:00 15 19 Este 37 Este 0 -- -- 49
2019-10-02 22:00:00 13.8 19 Nordeste 34 Nordeste 0 -- -- 53
2019-10-02 21:00:00 14.3 18 Nordeste 26 Este 0 -- -- 53
2019-10-02 20:00:00 16.8 15 Este 27 Este 0 -- -- 46
2019-10-02 19:00:00 18.8 20 Nordeste 35 Nordeste 0 -- -- 43
2019-10-02 18:00:00 20 21 Nordeste 37 Nordeste 0 -- -- 37
2019-10-02 17:00:00 20.7 22 Nordeste 39 Nordeste 0 -- -- 35
2019-10-02 16:00:00 21.4 25 Nordeste 40 Nordeste 0 -- -- 36
2019-10-02 15:00:00 22.9 14 Nordeste 31 Norte 0 -- -- 31
2019-10-02 14:00:00 21.8 12 Nordeste 37 Este 0 -- -- 37
2019-10-02 13:00:00 19.8 23 Nordeste 47 Este 0 -- -- 43
2019-10-02 12:00:00 17 30 Este 49 Nordeste 0 -- -- 48
2019-10-02 11:00:00 15.6 30 Nordeste 52 Nordeste 0 -- -- 39
2019-10-02 10:00:00 11 33 Nordeste 59 Este 0 -- -- 64
2019-10-02 09:00:00 8.9 42 Este 63 Este 0 -- -- 84
2019-10-02 08:00:00 9 41 Este 60 Nordeste 0 -- -- 86
2019-10-02 07:00:00 10.6 37 Este 57 Nordeste 0 -- -- 82
2019-10-02 06:00:00 10.9 41 Nordeste 62 Nordeste 0 -- -- 80
2019-10-02 05:00:00 11 33 Este 51 Este 0 -- -- 81
2019-10-02 04:00:00 11.4 30 Este 47 Este 0 -- -- 79
2019-10-02 03:00:00 12.2 27 Nordeste 40 Nordeste 0 -- -- 76
2019-10-02 02:00:00 12.7 22 Nordeste 35 Este 0 -- -- 70
2019-10-02 01:00:00 13.8 18 Este 33 Este 0 -- -- 64
2019-10-02 00:00:00 14.7 21 Nordeste 37 Norte 0 -- -- 60
2019-10-01 23:00:00 14.8 13 Nordeste 29 Este 0 -- -- 60
2019-10-01 22:00:00 15.8 17 Nordeste 26 Este 0 -- -- 53
2019-10-01 21:00:00 16.6 11 Nordeste 23 Nordeste 0 -- -- 52
2019-10-01 20:00:00 17.9 13 Nordeste 29 Este 0 -- -- 54
2019-10-01 19:00:00 20.7 18 Este 33 Este 0 -- -- 49
2019-10-01 18:00:00 21.2 17 Nordeste 37 Este 0 -- -- 49
2019-10-01 17:00:00 21 22 Este 40 Este 0 -- -- 52
2019-10-01 16:00:00 21.2 19 Nordeste 42 Este 0 -- -- 51
2019-10-01 15:00:00 20.8 21 Este 48 Este 0 -- -- 52
2019-10-01 14:00:00 20 22 Este 41 Este 0 -- -- 55
2019-10-01 13:00:00 18.4 26 Nordeste 49 Este 0 -- -- 61
2019-10-01 12:00:00 15 28 Nordeste 46 Nordeste 0 -- -- 74
2019-10-01 11:00:00 13.7 30 Nordeste 53 Este 0 -- -- 79
2019-10-01 10:00:00 11.8 38 Este 50 Este 0 -- -- 73
2019-10-01 09:00:00 15.4 21 Nordeste 30 Nordeste 0 -- -- 46
2019-10-01 08:00:00 14.2 9 Este 15 Sudeste 0 -- -- 34
2019-10-01 07:00:00 14.9 10 Este 13 Sudeste 0 -- -- 50
2019-10-01 06:00:00 16.5 3 Sur 9 Sudeste 0 -- -- 47
2019-10-01 05:00:00 16.8 3 Sur 9 Este 0 -- -- 44
2019-10-01 04:00:00 17.4 6 Este 11 Este 0 -- -- 43
2019-10-01 03:00:00 16.3 8 Este 14 Este 0 -- -- 39
2019-10-01 02:00:00 16.3 7 Sudeste 13 Este 0 -- -- 38
2019-10-01 01:00:00 17.2 9 Este 14 Este 0 -- -- 33
2019-10-01 00:00:00 18.1 5 Este 13 Sudeste 0 -- -- 36
2019-09-30 23:00:00 18 5 Este 15 Este 0 -- -- 37
2019-09-30 22:00:00 19.1 7 Este 14 Este 0 -- -- 38
2019-09-30 21:00:00 18.8 7 Este 13 Sudeste 0 -- -- 39
2019-09-30 20:00:00 21.2 6 Sudeste 14 Sudoeste 0 -- -- 36
2019-09-30 19:00:00 25.1 13 Sudoeste 35 Sudoeste 0 -- -- 27
2019-09-30 18:00:00 25.7 18 Sudoeste 25 Sudoeste 0 -- -- 26
2019-09-30 17:00:00 25.7 15 Sudoeste 26 Sudoeste 0 -- -- 29
2019-09-30 16:00:00 26 16 Sudoeste 28 Sudoeste 0 -- -- 29
2019-09-30 15:00:00 25.4 16 Sudoeste 23 Sudoeste 0 -- -- 32
2019-09-30 14:00:00 24.8 13 Sudoeste 21 Sudoeste 0 -- -- 33
2019-09-30 13:00:00 24.4 13 Sudoeste 18 Sudoeste 0 -- -- 32
2019-09-30 12:00:00 24.2 3 Sudoeste 9 Sudeste 0 -- -- 30
2019-09-30 11:00:00 21.3 6 Sudeste 14 Sudeste 0 -- -- 35
2019-09-30 10:00:00 16.2 9 Sudeste 18 Nordeste 0 -- -- 43
2019-09-30 09:00:00 16 11 Este 23 Este 0 -- -- 41
2019-09-30 08:00:00 16 15 Nordeste 27 Nordeste 0 -- -- 41
2019-09-30 07:00:00 15.8 21 Nordeste 30 Nordeste 0 -- -- 51
2019-09-30 06:00:00 17.3 19 Nordeste 39 Nordeste 0 -- -- 53
2019-09-30 05:00:00 15.1 22 Nordeste 38 Nordeste 0 -- -- 54
2019-09-30 04:00:00 17.1 29 Nordeste 39 Nordeste 0 -- -- 47
2019-09-30 03:00:00 17.6 24 Nordeste 39 Nordeste 0 -- -- 46
2019-09-30 02:00:00 16.8 20 Nordeste 38 Nordeste 0 -- -- 47
2019-09-30 01:00:00 17.3 24 Nordeste 39 Nordeste 0 -- -- 41
2019-09-30 00:00:00 19.4 17 Este 32 Este 0 -- -- 36
2019-09-29 23:00:00 18.7 19 Nordeste 26 Nordeste 0 -- -- 37
2019-09-29 22:00:00 18.4 10 Nordeste 17 Nordeste 0 -- -- 38
2019-09-29 21:00:00 17.9 9 Este 13 Este 0 -- -- 35
2019-09-29 20:00:00 20.3 10 Nordeste 15 Nordeste 0 -- -- 41
2019-09-29 19:00:00 25.5 9 Oeste 19 Sudoeste 0 -- -- 28
2019-09-29 18:00:00 26.3 13 Sudoeste 19 Sudoeste 0 -- -- 29
2019-09-29 17:00:00 26.3 13 Sudoeste 20 Sudoeste 0 -- -- 28
2019-09-29 16:00:00 25.9 13 Sudoeste 22 Sudoeste 0 -- -- 30
2019-09-29 15:00:00 25.3 14 Sudoeste 20 Sudoeste 0 -- -- 25
2019-09-29 14:00:00 24.8 14 Sudoeste 23 Oeste 0 -- -- 32
2019-09-29 13:00:00 23.9 16 Sudoeste 22 Oeste 0 -- -- 35
2019-09-29 12:00:00 23.5 8 Sudoeste 13 Sudoeste 0 -- -- 34
2019-09-29 11:00:00 22.1 3 Sur 14 Este 0 -- -- 40
2019-09-29 10:00:00 17.8 5 Este 13 Sudeste 0 -- -- 46
2019-09-29 09:00:00 17.3 6 Este 12 Sudeste 0 -- -- 46
2019-09-29 08:00:00 17.8 7 Este 18 Este 0 -- -- 42
2019-09-29 07:00:00 17.9 5 Nordeste 14 Este 0 -- -- 44
2019-09-29 06:00:00 16.5 8 Este 12 Sudeste 0 -- -- 46
2019-09-29 05:00:00 16.8 8 Este 14 Sudeste 0 -- -- 43
2019-09-29 04:00:00 16.8 7 Este 13 Este 0 -- -- 42
2019-09-29 03:00:00 17.1 9 Este 14 Este 0 -- -- 42
2019-09-29 02:00:00 17.5 8 Este 13 Este 0 -- -- 41
2019-09-29 01:00:00 17.5 3 Este 13 Sudeste 0 -- -- 39
2019-09-29 00:00:00 17.7 7 Nordeste 11 Nordeste 0 -- -- 41
2019-09-28 23:00:00 18.6 5 Este 14 Sudeste 0 -- -- 38
2019-09-28 22:00:00 17.5 9 Nordeste 12 Nordeste 0 -- -- 45
2019-09-28 21:00:00 18.2 7 Este 10 Sudeste 0 -- -- 46
2019-09-28 20:00:00 20.6 9 Nordeste 10 Nordeste 0 -- -- 46
2019-09-28 19:00:00 25.2 10 Oeste 19 Sudoeste 0 -- -- 34
2019-09-28 18:00:00 26 13 Sudoeste 20 Oeste 0 -- -- 32
2019-09-28 17:00:00 25.8 13 Sudoeste 21 Sudoeste 0 -- -- 32
2019-09-28 16:00:00 25.2 13 Sudoeste 23 Oeste 0 -- -- 36
2019-09-28 15:00:00 24.9 13 Sudoeste 19 Sudoeste 0 -- -- 34
2019-09-28 14:00:00 23.9 12 Sudoeste 15 Sudoeste 0 -- -- 36
2019-09-28 13:00:00 23.2 8 Sudoeste 12 Sudoeste 0 -- -- 38
2019-09-28 12:00:00 22.2 6 Sudoeste 9 Sudoeste 0 -- -- 39
2019-09-28 11:00:00 20.5 3 Sudeste 12 Sudeste 0 -- -- 43
2019-09-28 10:00:00 15.7 8 Sudeste 11 Este 0 -- -- 51
2019-09-28 09:00:00 14.5 5 Sudeste 9 Este 0 -- -- 52
2019-09-28 08:00:00 15 6 Este 12 Sudeste 0 -- -- 47
2019-09-28 07:00:00 15.3 6 Este 23 Este 0 -- -- 48
2019-09-28 06:00:00 15.3 10 Este 32 Nordeste 0 -- -- 48
2019-09-28 05:00:00 15.1 24 Nordeste 40 Nordeste 0 -- -- 61
2019-09-28 04:00:00 15.8 27 Nordeste 41 Nordeste 0 -- -- 62
2019-09-28 03:00:00 15.4 23 Nordeste 37 Nordeste 0 -- -- 60
2019-09-28 02:00:00 16.2 18 Nordeste 37 Nordeste 0 -- -- 62
2019-09-28 01:00:00 15.6 25 Nordeste 34 Nordeste 0 -- -- 56
2019-09-28 00:00:00 18 20 Este 33 Este 0 -- -- 48
2019-09-27 23:00:00 17.5 18 Este 31 Nordeste 0 -- -- 48
2019-09-27 22:00:00 16.9 22 Nordeste 32 Nordeste 0 -- -- 49
2019-09-27 21:00:00 18.2 17 Nordeste 24 Nordeste 0 -- -- 46
2019-09-27 20:00:00 21.3 12 Nordeste 21 Este 0 -- -- 39
2019-09-27 19:00:00 24.1 12 Nordeste 23 Nordeste 0 -- -- 35
2019-09-27 18:00:00 26 11 Sudoeste 18 Sudoeste 0 -- -- 27
2019-09-27 17:00:00 26.2 12 Sudoeste 22 Sudoeste 0 -- -- 27
2019-09-27 16:00:00 25.8 10 Sudoeste 19 Sudoeste 0 -- -- 29
2019-09-27 15:00:00 25.2 9 Sudoeste 18 Sudoeste 0 -- -- 34
2019-09-27 14:00:00 23.7 7 Nordeste 24 Nordeste 0 -- -- 35
2019-09-27 13:00:00 22.5 13 Nordeste 28 Nordeste 0 -- -- 37
2019-09-27 12:00:00 20.3 17 Nordeste 36 Este 0 -- -- 44
2019-09-27 11:00:00 18.5 23 Este 39 Nordeste 0 -- -- 45
2019-09-27 10:00:00 16.5 29 Este 42 Nordeste 0 -- -- 46
2019-09-27 09:00:00 14.8 26 Nordeste 37 Nordeste 0 -- -- 52
2019-09-27 08:00:00 14.1 23 Nordeste 40 Nordeste 0 -- -- 56
2019-09-27 07:00:00 16.8 18 Este 33 Nordeste 0 -- -- 45
2019-09-27 06:00:00 16.6 17 Nordeste 37 Nordeste 0 -- -- 44
2019-09-27 05:00:00 16.1 21 Nordeste 37 Nordeste 0 -- -- 48
2019-09-27 04:00:00 16.4 18 Nordeste 32 Nordeste 0 -- -- 47
2019-09-27 03:00:00 18.2 20 Este 32 Este 0 -- -- 40
2019-09-27 02:00:00 18 15 Nordeste 31 Este 0 -- -- 44
2019-09-27 01:00:00 18.2 18 Este 31 Este 0 -- -- 48
2019-09-27 00:00:00 18.1 18 Este 30 Este 0 -- -- 52
2019-09-26 23:00:00 18.4 17 Este 28 Este 0 -- -- 55
2019-09-26 22:00:00 16.7 6 Este 12 Sudeste 0 -- -- 63
2019-09-26 21:00:00 17.5 6 Este 10 Nordeste 0 -- -- 61
2019-09-26 20:00:00 20.8 5 Nordeste 14 Oeste 0 -- -- 55
2019-09-26 19:00:00 24.3 10 Sudoeste 24 Oeste 0 -- -- 44
2019-09-26 18:00:00 24.7 13 Sudoeste 19 Sudoeste 0 -- -- 42
2019-09-26 17:00:00 24.7 12 Sudoeste 23 Sudoeste 0 -- -- 43
2019-09-26 16:00:00 24.3 14 Sudoeste 24 Sudoeste 0 -- -- 44
2019-09-26 15:00:00 23.1 17 Sudoeste 24 Sudoeste 0 -- -- 48
2019-09-26 14:00:00 22.1 13 Sudoeste 20 Sudoeste 0 -- -- 53
2019-09-26 13:00:00 21 10 Sudoeste 16 Sudoeste 0 -- -- 57
2019-09-26 12:00:00 20.5 9 Sudoeste 14 Sudoeste 0 -- -- 54
2019-09-26 11:00:00 19.5 4 Sudoeste 8 Sudoeste 0 -- -- 54
2019-09-26 10:00:00 15.8 4 Sudeste 10 Sudeste 0 -- -- 64
2019-09-26 09:00:00 14.4 7 Sudeste 14 Este 0 -- -- 65
2019-09-26 08:00:00 14.8 12 Este 19 Nordeste 0 -- -- 64
2019-09-26 07:00:00 14.6 8 Este 26 Nordeste 0 -- -- 63
2019-09-26 06:00:00 14.5 20 Nordeste 31 Nordeste 0 -- -- 66
2019-09-26 05:00:00 14.6 23 Nordeste 39 Nordeste 0 -- -- 66
2019-09-26 04:00:00 14.7 23 Nordeste 38 Nordeste 0 -- -- 65
2019-09-26 03:00:00 15.7 22 Nordeste 32 Nordeste 0 -- -- 62
2019-09-26 02:00:00 16.1 18 Nordeste 31 Nordeste 0 -- -- 62
2019-09-26 01:00:00 16.7 21 Nordeste 43 Nordeste 0 -- -- 60
2019-09-26 00:00:00 16.2 28 Este 35 Nordeste 0 -- -- 62
2019-09-25 23:00:00 17.3 21 Este 31 Este 0 -- -- 58
2019-09-25 22:00:00 17.2 17 Este 29 Este 0 -- -- 59
2019-09-25 21:00:00 16.3 15 Nordeste 24 Nordeste 0 -- -- 64
2019-09-25 20:00:00 18.7 13 Este 26 Nordeste 0 -- -- 56
2019-09-25 19:00:00 20.7 13 Nordeste 28 Nordeste 0 -- -- 48
2019-09-25 18:00:00 21.5 15 Nordeste 27 Nordeste 0 -- -- 46
2019-09-25 17:00:00 22.3 10 Nordeste 21 Nordeste 0 -- -- 46
2019-09-25 16:00:00 22 8 Nordeste 22 Nordeste 0 -- -- 44
2019-09-25 15:00:00 21.3 11 Nordeste 19 Norte 0 -- -- 47
2019-09-25 14:00:00 19.8 14 Nordeste 28 Norte 0 -- -- 50
2019-09-25 13:00:00 18.5 13 Nordeste 37 Nordeste 0 -- -- 57
2019-09-25 12:00:00 15.8 24 Este 53 Nordeste 0 -- -- 68
2019-09-25 11:00:00 13.4 33 Nordeste 49 Nordeste 0 -- -- 76
2019-09-25 10:00:00 12 30 Este 50 Nordeste 0 -- -- 81
2019-09-25 09:00:00 11 31 Este 49 Este 0 -- -- 86
2019-09-25 08:00:00 11.2 24 Este 46 Este 0 -- -- 85
2019-09-25 07:00:00 11.4 25 Nordeste 44 Este 0 -- -- 84
2019-09-25 06:00:00 11.9 30 Este 46 Este 0 -- -- 83
2019-09-25 05:00:00 11.7 24 Nordeste 41 Nordeste 0 -- -- 84
2019-09-25 04:00:00 11.9 23 Nordeste 46 Nordeste 0 -- -- 83
2019-09-25 03:00:00 12.9 22 Nordeste 35 Norte 0 -- -- 80
2019-09-25 02:00:00 13.5 20 Nordeste 40 Nordeste 0 -- -- 82
2019-09-25 01:00:00 14.5 17 Nordeste 30 Norte 0 -- -- 84
2019-09-25 00:00:00 14.3 9 Nordeste 12 Este 0 -- -- 89
2019-09-24 23:00:00 16 5 Sur 12 Sudoeste 0 -- -- 87
2019-09-24 22:00:00 16.8 7 Sudoeste 20 Sudoeste 0 -- -- 89
2019-09-24 21:00:00 17.5 12 Sudoeste 22 Sudoeste 0 -- -- 85
2019-09-24 20:00:00 18.1 9 Sudoeste 23 Oeste 0 -- -- 82
2019-09-24 19:00:00 18.6 15 Sudoeste 29 Oeste 0 -- -- 82
2019-09-24 18:00:00 19.7 18 Sudoeste 28 Sudoeste 0 -- -- 76
2019-09-24 17:00:00 19.7 18 Sudoeste 30 Sudoeste 0 -- -- 70
2019-09-24 16:00:00 21.5 18 Sudoeste 26 Sudoeste 0 -- -- 63
2019-09-24 15:00:00 19.3 13 Sudoeste 19 Sudoeste 0 -- -- 62
2019-09-24 14:00:00 20.1 9 Sudoeste 13 Sudoeste 0 -- -- 58
2019-09-24 13:00:00 18.4 8 Sudoeste 13 Sudoeste 0 -- -- 54
2019-09-24 12:00:00 17.4 8 Sudoeste 13 Oeste 0 -- -- 58
2019-09-24 11:00:00 18.3 0 Calma 12 Sudeste 0 -- -- 56
2019-09-24 10:00:00 14.6 7 Sudeste 16 Sudeste 0 -- -- 65
2019-09-24 09:00:00 13.1 7 Sudeste 14 Sudeste 0 -- -- 66
2019-09-24 08:00:00 12.8 10 Sudeste 16 Sudeste 0 -- -- 68
2019-09-24 07:00:00 12.7 12 Sudeste 18 Sudeste 0 -- -- 69
2019-09-24 06:00:00 13.3 10 Sudeste 15 Sudeste 0 -- -- 66
2019-09-24 05:00:00 13.3 5 Este 9 Este 0 -- -- 65
2019-09-24 04:00:00 13.3 5 Sudeste 13 Este 0 -- -- 66
2019-09-24 03:00:00 13.5 12 Sudeste 15 Sudeste 0 -- -- 64
2019-09-24 02:00:00 13.3 6 Este 14 Sudeste 0 -- -- 67
2019-09-24 01:00:00 13.5 7 Este 12 Este 0 -- -- 66
2019-09-24 00:00:00 13.3 8 Este 12 Sudeste 0 -- -- 64
2019-09-23 23:00:00 13.4 8 Este 11 Sudeste 0 -- -- 61
2019-09-23 22:00:00 13.7 8 Este 12 Este 0 -- -- 63
2019-09-23 21:00:00 14.9 8 Este 12 Sudeste 0 -- -- 58
2019-09-23 20:00:00 18.1 0 Calma 19 Sudoeste 0 -- -- 59
2019-09-23 19:00:00 19.4 14 Sudoeste 21 Sudoeste 0 -- -- 51
2019-09-23 18:00:00 21.1 13 Sudoeste 19 Sudoeste 0 -- -- 52
2019-09-23 17:00:00 21.1 11 Sudoeste 18 Sudoeste 0 -- -- 53
2019-09-23 16:00:00 20.1 10 Sudoeste 21 Sudoeste 0 -- -- 58
2019-09-23 15:00:00 19 14 Sudoeste 20 Sudoeste 0 -- -- 60
2019-09-23 14:00:00 18.5 10 Sudoeste 16 Sudoeste 0 -- -- 60
2019-09-23 13:00:00 16.7 10 Sudoeste 17 Sudoeste 0 -- -- 63
2019-09-23 12:00:00 16.2 11 Sudoeste 16 Sudoeste 0 -- -- 61
2019-09-23 11:00:00 15.3 6 Oeste 14 Nordeste 0 -- -- 66
2019-09-23 10:00:00 13 7 Nordeste 27 Nordeste 0 -- -- 78
2019-09-23 09:00:00 11.8 19 Nordeste 31 Nordeste 0 -- -- 80
2019-09-23 08:00:00 10.8 15 Nordeste 32 Nordeste 0 -- -- 83
2019-09-23 07:00:00 11.3 18 Nordeste 31 Nordeste 0 -- -- 82
2019-09-23 06:00:00 11.5 24 Nordeste 33 Nordeste 0 -- -- 82
2019-09-23 05:00:00 11.9 19 Nordeste 31 Nordeste 0 -- -- 80
2019-09-23 04:00:00 12 12 Nordeste 19 Este 0 -- -- 77
2019-09-23 03:00:00 11.9 7 Sudeste 23 Nordeste 0 -- -- 77
2019-09-23 02:00:00 12.9 12 Este 20 Nordeste 0 -- -- 74
2019-09-23 01:00:00 11.2 5 Este 9 Sudeste 0 -- -- 86
2019-09-23 00:00:00 11.3 7 Sudeste 11 Este 0 -- -- 83
2019-09-22 23:00:00 12.3 8 Nordeste 13 Nordeste 0 -- -- 85
2019-09-22 22:00:00 13.2 5 Este 9 Sur 0 -- -- 86
2019-09-22 21:00:00 14.6 0 Calma 7 Norte 0 -- -- 82
2019-09-22 20:00:00 15.1 0 Calma 19 Oeste 0 -- -- 80
2019-09-22 19:00:00 16.4 13 Oeste 24 Sudoeste 0 -- -- 73
2019-09-22 18:00:00 18.1 12 Sudoeste 32 Sudoeste 0 -- -- 66
2019-09-22 17:00:00 18.3 16 Sudoeste 30 Sudoeste 0 -- -- 60
2019-09-22 16:00:00 18.5 19 Sudoeste 29 Sudoeste 0 -- -- 63
2019-09-22 15:00:00 18.1 16 Sudoeste 31 Sudoeste 0 -- -- 59
2019-09-22 14:00:00 17.2 15 Sudoeste 22 Sudoeste 0 -- -- 68
2019-09-22 13:00:00 16.6 7 Nordeste 18 Nordeste 0 -- -- 67
2019-09-22 12:00:00 14.8 8 Nordeste 25 Nordeste 0 -- -- 76
2019-09-22 11:00:00 13.6 14 Nordeste 27 Nordeste 0 -- -- 81
2019-09-22 10:00:00 11.7 14 Nordeste 26 Nordeste 0 -- -- 92
2019-09-22 09:00:00 10.8 15 Nordeste 28 Nordeste 0 -- -- 99
2019-09-22 08:00:00 12.4 2 Nordeste 15 Sudoeste 0 -- -- 99
2019-09-22 07:00:00 13.1 9 Sudoeste 26 Sudoeste 0 -- -- 99
2019-09-22 06:00:00 13.7 15 Sudoeste 29 Sudoeste 0 -- -- 99
2019-09-22 05:00:00 14.1 22 Sudoeste 37 Sudoeste 1 -- -- 99
2019-09-22 04:00:00 14.4 23 Sudoeste 40 Sudoeste 2.8 -- -- 99
2019-09-22 03:00:00 14.1 21 Sudoeste 32 Sudoeste 2.2 -- -- 98
2019-09-22 02:00:00 13.8 24 Sudoeste 41 Sudoeste 7.2 -- -- 97
2019-09-22 01:00:00 15.1 24 Sudoeste 44 Oeste 1.6 -- -- 94
2019-09-22 00:00:00 15.4 19 Sudoeste 37 Oeste 1.2 -- -- 94
2019-09-21 23:00:00 14.6 15 Sudoeste 28 Sur 0.4 -- -- 98
2019-09-21 22:00:00 14.2 10 Oeste 21 Sudoeste 0.2 -- -- 98
2019-09-21 21:00:00 13.9 15 Sudoeste 21 Sudoeste 1.2 -- -- 98
2019-09-21 20:00:00 13.6 14 Sudoeste 28 Sudoeste 0.6 -- -- 98
2019-09-21 19:00:00 13.5 11 Sudoeste 23 Sudoeste 0.4 -- -- 98
2019-09-21 18:00:00 13.5 17 Sudoeste 26 Sudoeste 1.2 -- -- 97
2019-09-21 17:00:00 13.1 12 Sudoeste 33 Sudoeste 2.8 -- -- 97
2019-09-21 16:00:00 13.3 21 Sudoeste 36 Oeste 0.4 -- -- 95
2019-09-21 15:00:00 13.5 18 Sudoeste 27 Oeste 0.4 -- -- 95
2019-09-21 14:00:00 13.4 19 Oeste 36 Oeste 0.4 -- -- 91
2019-09-21 13:00:00 13.4 19 Oeste 43 Oeste 0.6 -- -- 91
2019-09-21 12:00:00 13.7 12 Sudoeste 26 Sur 1.4 -- -- 94
2019-09-21 11:00:00 13.4 8 Sudoeste 19 Sudoeste 1.4 -- -- 96
2019-09-21 10:00:00 13.3 11 Sudoeste 17 Sudoeste 1 -- -- 96
2019-09-21 09:00:00 13.4 14 Sudoeste 26 Sudoeste 0.6 -- -- 94
2019-09-21 08:00:00 13.8 9 Sudoeste 17 Sudoeste 0 -- -- 90
2019-09-21 07:00:00 13.3 8 Sudoeste 24 Sudoeste 0 -- -- 94
2019-09-21 06:00:00 14 13 Sur 21 Sudoeste 0 -- -- 86
2019-09-21 05:00:00 14.1 13 Sudoeste 31 Sudoeste 0 -- -- 84
2019-09-21 04:00:00 14.2 14 Sudoeste 22 Sudoeste 0 -- -- 87
2019-09-21 03:00:00 14.4 12 Sudoeste 19 Sudoeste 0 -- -- 85
2019-09-21 02:00:00 14.7 5 Sudoeste 11 Sudoeste 0 -- -- 89
2019-09-21 01:00:00 15 4 Sur 8 Sur 0 -- -- 85
2019-09-21 00:00:00 15 3 Este 10 Sudoeste 0 -- -- 88
2019-09-20 23:00:00 15.1 4 Sur 10 Sur 0 -- -- 85
2019-09-20 22:00:00 15 6 Sudeste 12 Sudeste 0 -- -- 85
2019-09-20 21:00:00 15 10 Sudeste 25 Oeste 1.8 -- -- 84
2019-09-20 20:00:00 17.2 8 Sur 23 Sudoeste 0.8 -- -- 77
2019-09-20 19:00:00 19 5 Sur 10 Sudeste 0 -- -- 71
2019-09-20 18:00:00 18.3 4 Nordeste 24 Oeste 2.2 -- -- 76
2019-09-20 17:00:00 20.9 14 Sudoeste 27 Oeste 0 -- -- 58
2019-09-20 16:00:00 22.5 19 Oeste 31 Oeste 0 -- -- 53
2019-09-20 15:00:00 23 16 Oeste 32 Sudoeste 0 -- -- 51
2019-09-20 14:00:00 21.8 17 Oeste 27 Sudoeste 0 -- -- 53
2019-09-20 13:00:00 22.7 16 Oeste 32 Sudoeste 0 -- -- 50
2019-09-20 12:00:00 20.2 14 Oeste 28 Sudoeste 0 -- -- 54
2019-09-20 11:00:00 19.3 14 Oeste 26 Noroeste 0 -- -- 56
2019-09-20 10:00:00 18.2 5 Noroeste 18 Noroeste 0 -- -- 63
2019-09-20 09:00:00 16.3 4 Oeste 11 Norte 0 -- -- 71
2019-09-20 08:00:00 16.2 3 Sudeste 11 Sudeste 0 -- -- 69
2019-09-20 07:00:00 17.7 5 Sudeste 12 Sudeste 0 -- -- 63
2019-09-20 06:00:00 16.8 7 Este 13 Sudeste 0 -- -- 63
2019-09-20 05:00:00 18.3 5 Este 15 Sudeste 0 -- -- 60
2019-09-20 04:00:00 18.1 8 Este 13 Sudeste 0 -- -- 60
2019-09-20 03:00:00 18.9 6 Este 22 Nordeste 0 -- -- 58
2019-09-20 02:00:00 18.9 9 Este 23 Nordeste 0 -- -- 58
2019-09-20 01:00:00 17.6 7 Nordeste 14 Sudeste 0 -- -- 65
2019-09-20 00:00:00 18.1 8 Este 13 Este 0 -- -- 63
2019-09-19 23:00:00 18.3 7 Este 15 Nordeste 0 -- -- 62
2019-09-19 22:00:00 18.2 8 Este 13 Este 0 -- -- 62
2019-09-19 21:00:00 19.4 8 Este 12 Sudeste 0 -- -- 54
2019-09-19 20:00:00 21.9 5 Este 22 Oeste 0 -- -- 51
2019-09-19 19:00:00 25.2 10 Oeste 23 Sudoeste 0 -- -- 40
2019-09-19 18:00:00 26.5 10 Sudoeste 23 Sudoeste 0 -- -- 41
2019-09-19 17:00:00 26 12 Oeste 24 Sudoeste 0 -- -- 44
2019-09-19 16:00:00 24 10 Sudoeste 23 Oeste 0 -- -- 47
2019-09-19 15:00:00 24.2 6 Sudoeste 20 Sudoeste 0 -- -- 47
2019-09-19 14:00:00 23.5 3 Sur 10 Sudoeste 0 -- -- 52
2019-09-19 13:00:00 22.5 7 Sudoeste 13 Sudoeste 0 -- -- 51
2019-09-19 12:00:00 23.2 8 Oeste 14 Nordeste 0 -- -- 53
2019-09-19 11:00:00 21.4 9 Nordeste 22 Nordeste 0 -- -- 57
2019-09-19 10:00:00 18.7 16 Nordeste 31 Nordeste 0 -- -- 60
2019-09-19 09:00:00 16.8 19 Nordeste 28 Nordeste 0 -- -- 64
2019-09-19 08:00:00 16.4 23 Nordeste 30 Nordeste 0 -- -- 65
2019-09-19 07:00:00 16.5 22 Nordeste 28 Nordeste 0 -- -- 65
2019-09-19 06:00:00 17.2 9 Nordeste 19 Nordeste 0 -- -- 62
2019-09-19 05:00:00 17.7 6 Este 28 Norte 0 -- -- 60
2019-09-19 04:00:00 17.4 21 Nordeste 30 Nordeste 0 -- -- 62
2019-09-19 03:00:00 17.5 13 Nordeste 29 Nordeste 0 -- -- 63
2019-09-19 02:00:00 17.4 16 Nordeste 26 Este 0 -- -- 65
2019-09-19 01:00:00 18.1 14 Este 27 Este 0 -- -- 62
2019-09-19 00:00:00 19.1 17 Este 26 Este 0 -- -- 59